createdAt,value
2023-05-02T00:01:45.864Z,1.50
2023-05-02T00:04:12.640Z,1.45
2023-05-02T00:06:39.874Z,1.83
2023-05-02T00:09:06.503Z,2.03
2023-05-02T00:11:39.234Z,1.60
2023-05-02T00:14:18.371Z,1.75
2023-05-02T00:17:04.653Z,1.40
2023-05-02T00:19:31.295Z,1.52
2023-05-02T00:21:58.919Z,2.55
2023-05-02T00:24:26.892Z,1.70
2023-05-02T00:26:53.524Z,1.30
2023-05-02T00:29:20.071Z,1.45
2023-05-02T00:31:46.653Z,2.00
2023-05-02T00:34:13.211Z,1.83
2023-05-02T00:36:39.773Z,1.50
2023-05-02T00:39:06.403Z,1.80
2023-05-02T00:41:34.194Z,1.52
2023-05-02T00:44:12.845Z,1.75
2023-05-02T00:47:01.143Z,1.62
2023-05-02T00:49:28.588Z,1.70
2023-05-02T00:51:55.532Z,1.50
2023-05-02T00:54:22.219Z,1.40
2023-05-02T00:56:49.407Z,1.70
2023-05-02T00:59:16.692Z,1.87
2023-05-02T01:02:05.347Z,1.65
2023-05-02T01:05:01.101Z,1.60
2023-05-02T01:07:46.475Z,1.62
2023-05-02T01:10:48.823Z,1.70
2023-05-02T01:13:32.749Z,1.60
2023-05-02T01:16:13.372Z,1.60
2023-05-02T01:18:43.594Z,1.42
2023-05-02T01:21:12.198Z,1.83
2023-05-02T01:24:00.715Z,1.52
2023-05-02T01:26:37.285Z,1.77
2023-05-02T01:29:07.146Z,1.70
2023-05-02T01:31:41.874Z,1.87
2023-05-02T01:34:10.778Z,1.80
2023-05-02T01:36:43.156Z,1.70
2023-05-02T01:39:13.461Z,1.70
2023-05-02T01:41:53.456Z,1.85
2023-05-02T01:44:24.330Z,2.00
2023-05-02T01:46:57.807Z,1.83
2023-05-02T01:49:26.893Z,1.80
2023-05-02T01:51:53.534Z,2.08
2023-05-02T01:54:24.731Z,1.80
2023-05-02T01:56:52.405Z,1.80
2023-05-02T01:59:22.486Z,1.70
2023-05-02T02:01:51.709Z,1.75
2023-05-02T02:04:20.011Z,1.80
2023-05-02T02:06:52.091Z,1.75
2023-05-02T02:09:18.957Z,1.80
2023-05-02T02:12:06.329Z,1.77
2023-05-02T02:15:13.082Z,1.98
2023-05-02T02:20:17.002Z,1.77
2023-05-02T02:22:44.506Z,2.00
2023-05-02T02:25:14.343Z,1.95
2023-05-02T02:27:41.714Z,2.17
2023-05-02T02:30:11.959Z,1.87
2023-05-02T02:32:38.611Z,2.10
2023-05-02T02:35:06.056Z,2.00
2023-05-02T02:37:35.319Z,2.08
2023-05-02T02:40:13.028Z,2.12
2023-05-02T02:43:08.958Z,2.22
2023-05-02T02:46:51.254Z,1.95
2023-05-02T02:50:15.676Z,2.20
2023-05-02T02:52:55.203Z,2.25
2023-05-02T02:55:35.435Z,2.00
2023-05-02T02:58:20.683Z,2.40
2023-05-02T03:00:49.748Z,2.00
2023-05-02T03:03:18.062Z,2.20
2023-05-02T03:05:45.577Z,2.37
2023-05-02T03:08:13.669Z,2.45
2023-05-02T03:10:40.309Z,2.30
2023-05-02T03:13:06.821Z,1.90
2023-05-02T03:16:24.392Z,2.20
2023-05-02T03:18:51.176Z,2.00
2023-05-02T03:21:17.710Z,2.33
2023-05-02T03:23:44.294Z,2.10
2023-05-02T03:26:11.121Z,2.50
2023-05-02T03:28:37.658Z,2.28
2023-05-02T03:31:04.384Z,2.28
2023-05-02T03:36:33.527Z,2.20
2023-05-02T03:39:00.118Z,2.00
2023-05-02T03:41:26.694Z,2.05
2023-05-02T03:43:53.246Z,1.90
2023-05-02T03:46:19.852Z,1.80
2023-05-02T03:49:17.026Z,2.45
2023-05-02T03:52:17.887Z,2.42
2023-05-02T03:54:50.961Z,2.00
2023-05-02T03:57:18.104Z,1.90
2023-05-02T03:59:45.830Z,2.08
2023-05-02T04:02:12.574Z,1.90
2023-05-02T04:04:40.772Z,1.83
2023-05-02T04:07:08.042Z,2.05
2023-05-02T04:12:09.943Z,2.10
2023-05-02T04:14:36.470Z,2.00
2023-05-02T04:17:03.182Z,1.62
2023-05-02T04:19:29.777Z,2.00
2023-05-02T04:21:56.296Z,2.10
2023-05-02T04:24:26.110Z,2.17
2023-05-02T04:27:15.454Z,2.20
2023-05-02T04:29:51.152Z,2.40
2023-05-02T04:32:17.713Z,2.17
2023-05-02T04:34:44.332Z,2.45
2023-05-02T04:37:11.179Z,2.55
2023-05-02T04:39:40.757Z,2.50
2023-05-02T04:42:07.319Z,2.72
2023-05-02T04:44:34.267Z,2.67
2023-05-02T04:47:04.616Z,2.75
2023-05-02T04:49:32.206Z,2.87
2023-05-02T04:51:59.142Z,2.60
2023-05-02T04:54:25.695Z,2.40
2023-05-02T04:56:52.269Z,2.40
2023-05-02T04:59:18.815Z,2.37
2023-05-02T05:01:45.627Z,2.30
2023-05-02T05:04:12.363Z,2.53
2023-05-02T05:06:39.051Z,2.60
2023-05-02T05:09:06.075Z,2.87
2023-05-02T05:11:32.684Z,2.42
2023-05-02T05:13:59.300Z,2.62
2023-05-02T05:16:25.962Z,2.70
2023-05-02T05:18:53.921Z,2.55
2023-05-02T05:21:20.860Z,2.92
2023-05-02T05:23:47.727Z,2.70
2023-05-02T05:26:15.784Z,2.50
2023-05-02T05:28:43.573Z,2.72
2023-05-02T05:31:13.036Z,2.80
2023-05-02T05:33:40.713Z,2.78
2023-05-02T05:36:08.718Z,2.70
2023-05-02T05:38:35.801Z,3.03
2023-05-02T05:41:02.808Z,2.80
2023-05-02T05:43:29.941Z,3.70
2023-05-02T05:45:56.810Z,3.03
2023-05-02T05:48:24.430Z,3.00
2023-05-02T05:50:52.380Z,3.37
2023-05-02T05:53:19.905Z,2.80
2023-05-02T05:55:46.469Z,3.20
2023-05-02T05:58:13.456Z,2.62
2023-05-02T06:00:40.290Z,2.78
2023-05-02T06:03:09.597Z,3.33
2023-05-02T06:05:36.979Z,2.85
2023-05-02T06:08:03.718Z,3.10
2023-05-02T06:10:31.618Z,2.92
2023-05-02T06:12:58.541Z,3.03
2023-05-02T06:15:25.119Z,3.10
2023-05-02T06:17:52.340Z,2.92
2023-05-02T06:20:19.125Z,2.97
2023-05-02T06:22:46.190Z,3.60
2023-05-02T06:25:12.731Z,3.20
2023-05-02T06:27:39.258Z,3.58
2023-05-02T06:30:06.691Z,3.42
2023-05-02T06:32:33.323Z,3.00
2023-05-02T06:34:59.999Z,3.05
2023-05-02T06:37:26.594Z,3.08
2023-05-02T06:39:53.159Z,2.85
2023-05-02T06:42:19.751Z,2.92
2023-05-02T06:44:46.321Z,2.83
2023-05-02T06:47:13.044Z,3.35
2023-05-02T06:49:39.728Z,2.70
2023-05-02T06:52:06.341Z,3.17
2023-05-02T06:55:42.660Z,2.90
2023-05-02T06:58:27.943Z,3.20
2023-05-02T07:00:54.528Z,2.83
2023-05-02T07:03:21.183Z,2.95
2023-05-02T07:05:47.745Z,2.80
2023-05-02T07:08:14.338Z,2.50
2023-05-02T07:10:53.188Z,2.80
2023-05-02T07:13:19.834Z,3.05
2023-05-02T07:15:46.420Z,2.70
2023-05-02T07:18:13.034Z,2.87
2023-05-02T07:20:41.419Z,3.28
2023-05-02T07:23:09.343Z,3.03
2023-05-02T07:25:42.119Z,3.17
2023-05-02T07:30:35.321Z,2.45
2023-05-02T07:33:01.894Z,3.12
2023-05-02T07:35:48.618Z,2.90
2023-05-02T07:38:37.032Z,2.53
2023-05-02T07:41:03.770Z,2.40
2023-05-02T07:43:30.359Z,2.90
2023-05-02T07:45:57.123Z,3.00
2023-05-02T07:48:25.005Z,2.60
2023-05-02T07:50:53.748Z,2.70
2023-05-02T07:53:20.277Z,2.85
2023-05-02T07:55:47.066Z,2.53
2023-05-02T07:58:13.614Z,2.65
2023-05-02T08:00:40.152Z,2.90
2023-05-02T08:03:07.704Z,2.40
2023-05-02T08:05:34.393Z,2.97
2023-05-02T08:08:02.050Z,2.58
2023-05-02T08:10:28.642Z,2.80
2023-05-02T08:12:55.519Z,2.87
2023-05-02T08:15:22.047Z,2.65
2023-05-02T08:17:48.641Z,2.80
2023-05-02T08:20:15.739Z,2.80
2023-05-02T08:22:42.341Z,2.70
2023-05-02T08:25:09.252Z,2.80
2023-05-02T08:27:35.847Z,2.70
2023-05-02T08:30:02.830Z,2.80
2023-05-02T08:32:30.184Z,2.75
2023-05-02T08:34:57.192Z,2.47
2023-05-02T08:37:23.786Z,3.12
2023-05-02T08:39:50.373Z,2.70
2023-05-02T08:42:16.930Z,2.58
2023-05-02T08:44:43.542Z,2.72
2023-05-02T08:47:13.729Z,2.72
2023-05-02T08:49:41.306Z,2.78
2023-05-02T08:52:09.370Z,2.25
2023-05-02T08:54:51.514Z,2.42
2023-05-02T08:57:18.106Z,2.60
2023-05-02T08:59:44.680Z,2.17
2023-05-02T09:02:39.627Z,2.50
2023-05-02T09:05:57.086Z,2.45
2023-05-02T09:08:43.611Z,2.83
2023-05-02T09:11:11.524Z,2.50
2023-05-02T09:13:43.037Z,2.22
2023-05-02T09:16:11.773Z,2.30
2023-05-02T09:18:49.909Z,2.37
2023-05-02T09:21:21.851Z,2.30
2023-05-02T09:24:01.755Z,2.40
2023-05-02T09:26:32.778Z,2.28
2023-05-02T09:29:02.282Z,2.40
2023-05-02T09:31:54.379Z,2.17
2023-05-02T09:34:20.622Z,2.20
2023-05-02T09:36:52.020Z,2.00
2023-05-02T09:41:54.695Z,2.50
2023-05-02T09:44:27.119Z,2.00
2023-05-02T09:46:55.633Z,1.90
2023-05-02T09:49:42.588Z,2.20
2023-05-02T09:52:17.828Z,2.40
2023-05-02T09:55:25.359Z,2.03
2023-05-02T09:58:04.542Z,1.77
2023-05-02T10:00:40.556Z,2.10
2023-05-02T10:03:08.604Z,2.03
2023-05-02T10:05:39.842Z,2.37
2023-05-02T10:08:32.720Z,2.10
2023-05-02T10:11:00.842Z,2.25
2023-05-02T10:13:32.198Z,2.25
2023-05-02T10:16:01.680Z,2.10
2023-05-02T10:18:32.960Z,2.00
2023-05-02T10:21:06.285Z,1.98
2023-05-02T10:23:53.420Z,2.03
2023-05-02T10:26:23.563Z,2.40
2023-05-02T10:28:51.252Z,2.50
2023-05-02T10:31:18.597Z,2.10
2023-05-02T10:34:13.581Z,1.80
2023-05-02T10:37:27.222Z,2.40
2023-05-02T10:40:00.937Z,2.17
2023-05-02T10:42:29.791Z,2.28
2023-05-02T10:44:56.830Z,2.20
2023-05-02T10:47:27.399Z,2.25
2023-05-02T10:49:59.837Z,2.00
2023-05-02T10:52:32.886Z,2.45
2023-05-02T11:05:22.898Z,2.10
2023-05-02T11:07:49.776Z,2.40
2023-05-02T11:10:46.340Z,2.80
2023-05-02T11:13:51.464Z,2.20
2023-05-02T11:16:18.105Z,2.50
2023-05-02T11:19:01.026Z,2.35
2023-05-02T11:21:29.521Z,2.58
2023-05-02T11:24:33.758Z,2.30
2023-05-02T11:27:38.545Z,2.78
2023-05-02T11:30:09.583Z,2.40
2023-05-02T11:32:45.475Z,2.05
2023-05-02T11:35:20.729Z,2.00
2023-05-02T11:37:58.079Z,2.10
2023-05-02T11:40:25.721Z,1.90
2023-05-02T11:45:37.612Z,2.03
2023-05-02T11:48:07.806Z,1.60
2023-05-02T11:50:46.654Z,1.83
2023-05-02T11:53:24.981Z,1.80
2023-05-02T11:55:54.417Z,2.03
2023-05-02T12:04:30.346Z,1.70
2023-05-02T12:06:57.988Z,1.90
2023-05-02T12:09:27.523Z,1.80
2023-05-02T12:11:54.845Z,1.70
2023-05-02T12:14:29.722Z,1.73
2023-05-02T12:19:44.884Z,1.65
2023-05-02T12:22:13.385Z,1.83
2023-05-02T12:24:41.252Z,2.22
2023-05-02T12:27:15.326Z,1.87
2023-05-02T12:29:46.042Z,2.65
2023-05-02T12:32:28.077Z,1.77
2023-05-02T12:35:47.506Z,1.77
2023-05-02T12:38:23.742Z,2.05
2023-05-02T12:40:57.449Z,2.05
2023-05-02T12:43:24.132Z,1.80
2023-05-02T12:45:53.861Z,2.10
2023-05-02T12:48:27.993Z,2.10
2023-05-02T12:50:55.477Z,2.22
2023-05-02T12:53:45.795Z,2.30
2023-05-02T12:56:13.426Z,1.90
2023-05-02T12:58:44.100Z,1.83
2023-05-02T13:01:11.216Z,2.12
2023-05-02T13:03:38.695Z,2.20
2023-05-02T13:06:05.817Z,2.00
2023-05-02T13:08:34.449Z,2.03
2023-05-02T13:11:04.867Z,2.40
2023-05-02T13:13:32.597Z,2.00
2023-05-02T13:15:59.116Z,2.05
2023-05-02T13:18:25.909Z,2.00
2023-05-02T13:20:52.535Z,2.40
2023-05-02T13:23:19.192Z,2.35
2023-05-02T13:25:45.765Z,1.98
2023-05-02T13:28:12.325Z,2.10
2023-05-02T13:30:38.978Z,2.20
2023-05-02T13:33:05.710Z,2.08
2023-05-02T13:35:33.501Z,2.05
2023-05-02T13:38:01.806Z,2.25
2023-05-02T13:40:28.542Z,2.00
2023-05-02T13:42:55.205Z,2.17
2023-05-02T13:45:21.860Z,2.10
2023-05-02T13:47:48.471Z,2.03
2023-05-02T13:50:15.144Z,2.75
2023-05-02T13:52:41.804Z,2.20
2023-05-02T13:55:21.672Z,2.05
2023-05-02T14:00:43.053Z,2.30
2023-05-02T14:03:13.846Z,2.20
2023-05-02T14:05:54.467Z,2.35
2023-05-02T14:08:23.492Z,2.35
2023-05-02T14:10:56.258Z,2.30
2023-05-02T14:13:26.372Z,2.22
2023-05-02T14:16:01.837Z,2.28
2023-05-02T14:18:29.494Z,2.28
2023-05-02T14:21:04.893Z,2.30
2023-05-02T14:23:36.957Z,2.10
2023-05-02T14:26:13.421Z,2.70
2023-05-02T14:28:50.658Z,2.15
2023-05-02T14:31:21.002Z,2.22
2023-05-02T14:33:50.235Z,2.17
2023-05-02T14:36:18.964Z,2.40
2023-05-02T14:38:50.913Z,2.45
2023-05-02T14:41:28.371Z,2.40
2023-05-02T14:43:58.411Z,2.47
2023-05-02T14:46:37.123Z,2.55
2023-05-02T14:49:11.531Z,2.30
2023-05-02T14:51:39.600Z,2.25
2023-05-02T14:54:07.174Z,2.45
2023-05-02T14:56:33.936Z,2.60
2023-05-02T14:59:00.792Z,2.20
2023-05-02T15:01:27.510Z,2.17
2023-05-02T15:04:05.057Z,2.85
2023-05-02T15:06:33.046Z,2.28
2023-05-02T15:08:59.923Z,2.85
2023-05-02T15:11:26.769Z,2.60
2023-05-02T15:13:53.348Z,2.58
2023-05-02T15:16:20.136Z,2.17
2023-05-02T15:18:46.886Z,2.60
2023-05-02T15:21:13.503Z,2.37
2023-05-02T15:23:40.292Z,2.10
2023-05-02T15:26:06.900Z,2.20
2023-05-02T15:28:33.555Z,2.42
2023-05-02T15:31:00.167Z,2.08
2023-05-02T15:33:26.782Z,2.20
2023-05-02T15:35:55.545Z,2.35
2023-05-02T15:38:22.572Z,2.05
2023-05-02T15:40:57.172Z,2.20
2023-05-02T15:43:24.862Z,2.50
2023-05-02T15:45:55.517Z,2.25
2023-05-02T15:48:23.447Z,2.62
2023-05-02T15:50:50.830Z,2.42
2023-05-02T15:53:18.112Z,2.42
2023-05-02T15:55:45.969Z,2.28
2023-05-02T15:58:13.612Z,2.62
2023-05-02T16:00:40.409Z,2.45
2023-05-02T16:03:07.110Z,2.22
2023-05-02T16:05:34.450Z,2.08
2023-05-02T16:08:01.589Z,2.35
2023-05-02T16:10:28.761Z,2.60
2023-05-02T16:12:55.482Z,2.70
2023-05-02T16:15:22.813Z,2.78
2023-05-02T16:17:50.551Z,2.35
2023-05-02T16:20:18.112Z,2.78
2023-05-02T16:22:48.560Z,3.05
2023-05-02T16:25:16.405Z,2.67
2023-05-02T16:27:43.723Z,2.78
2023-05-02T16:30:10.940Z,3.03
2023-05-02T16:32:37.855Z,3.55
2023-05-02T16:35:07.401Z,3.53
2023-05-02T16:37:35.330Z,3.15
2023-05-02T16:40:04.332Z,3.35
2023-05-02T16:42:31.399Z,3.15
2023-05-02T16:44:58.024Z,3.50
2023-05-02T16:47:24.779Z,3.05
2023-05-02T16:49:59.036Z,3.00
2023-05-02T16:52:26.619Z,3.35
2023-05-02T16:54:54.089Z,3.72
2023-05-02T16:57:21.574Z,4.10
2023-05-02T16:59:50.247Z,3.60
2023-05-02T17:02:18.933Z,3.65
2023-05-02T17:04:45.731Z,3.35
2023-05-02T17:07:12.670Z,3.50
2023-05-02T17:09:41.129Z,3.78
2023-05-02T17:12:11.012Z,3.75
2023-05-02T17:14:42.510Z,3.80
2023-05-02T17:17:09.996Z,3.17
2023-05-02T17:19:37.007Z,3.60
2023-05-02T17:22:05.247Z,3.90
2023-05-02T17:24:32.458Z,3.53
2023-05-02T17:26:59.431Z,3.45
2023-05-02T17:29:26.467Z,3.55
2023-05-02T17:31:53.061Z,3.17
2023-05-02T17:34:25.620Z,3.33
2023-05-02T17:36:52.264Z,3.35
2023-05-02T17:39:18.899Z,3.60
2023-05-02T17:41:45.459Z,3.05
2023-05-02T17:44:12.105Z,3.35
2023-05-02T17:46:38.899Z,3.25
2023-05-02T17:49:06.607Z,4.00
2023-05-02T17:51:33.848Z,3.70
2023-05-02T17:54:00.988Z,3.60
2023-05-02T17:56:28.610Z,3.58
2023-05-02T17:58:55.640Z,3.60
2023-05-02T18:01:22.523Z,3.70
2023-05-02T18:03:50.021Z,3.15
2023-05-02T18:06:17.785Z,3.40
2023-05-02T18:08:45.186Z,3.60
2023-05-02T18:11:18.630Z,3.75
2023-05-02T18:13:45.877Z,4.10
2023-05-02T18:16:14.048Z,3.60
2023-05-02T18:18:41.207Z,3.80
2023-05-02T18:21:09.440Z,3.47
2023-05-02T18:23:36.023Z,3.80
2023-05-02T18:26:02.787Z,3.72
2023-05-02T18:28:29.522Z,3.67
2023-05-02T18:30:56.076Z,3.62
2023-05-02T18:33:22.622Z,4.30
2023-05-02T18:35:51.481Z,4.18
2023-05-02T18:38:18.390Z,3.85
2023-05-02T18:40:45.696Z,3.85
2023-05-02T18:43:12.382Z,4.40
2023-05-02T18:45:39.007Z,3.90
2023-05-02T18:48:05.960Z,4.05
2023-05-02T18:50:32.712Z,3.72
2023-05-02T18:52:59.306Z,4.55
2023-05-02T18:55:25.920Z,5.20
2023-05-02T18:57:52.533Z,5.30
2023-05-02T19:00:20.552Z,4.65
2023-05-02T19:02:47.839Z,4.68
2023-05-02T19:05:15.111Z,4.03
2023-05-02T19:07:42.331Z,4.40
2023-05-02T19:10:10.966Z,4.32
2023-05-02T19:12:37.696Z,4.90
2023-05-02T19:15:05.103Z,4.68
2023-05-02T19:17:31.838Z,4.65
2023-05-02T19:19:58.610Z,4.35
2023-05-02T19:22:27.697Z,4.85
2023-05-02T19:24:57.522Z,5.10
2023-05-02T19:27:24.544Z,4.50
2023-05-02T19:29:54.267Z,4.80
2023-05-02T19:32:25.425Z,4.78
2023-05-02T19:34:52.092Z,5.45
2023-05-02T19:37:18.692Z,5.60
2023-05-02T19:39:45.247Z,4.97
2023-05-02T19:42:11.774Z,5.50
2023-05-02T19:44:38.376Z,5.30
2023-05-02T19:47:04.946Z,5.40
2023-05-02T19:49:31.661Z,6.00
2023-05-02T19:51:59.244Z,5.25
2023-05-02T19:54:25.997Z,5.12
2023-05-02T19:56:52.541Z,5.20
2023-05-02T19:59:19.184Z,5.62
2023-05-02T20:01:46.760Z,5.53
2023-05-02T20:04:13.671Z,5.25
2023-05-02T20:06:40.304Z,5.18
2023-05-02T20:09:07.062Z,4.78
2023-05-02T20:11:33.584Z,5.05
2023-05-02T20:14:00.426Z,4.95
2023-05-02T20:16:27.368Z,5.03
2023-05-02T20:18:54.213Z,5.20
2023-05-02T20:21:20.807Z,4.93
2023-05-02T20:26:22.689Z,4.80
2023-05-02T20:28:49.332Z,5.03
2023-05-02T20:31:15.960Z,5.20
2023-05-02T20:33:45.782Z,10.77
2023-05-02T20:36:14.254Z,23.40
2023-05-02T20:39:33.480Z,21.17
2023-05-02T20:42:34.494Z,11.25
2023-05-02T20:45:02.718Z,6.75
2023-05-02T20:47:30.185Z,6.25
2023-05-02T20:49:57.166Z,8.45
2023-05-02T20:52:23.956Z,8.57
2023-05-02T20:54:53.938Z,6.78
2023-05-02T20:57:20.676Z,6.50
2023-05-02T20:59:47.309Z,6.22
2023-05-02T21:02:14.182Z,5.90
2023-05-02T21:04:42.225Z,6.95
2023-05-02T21:07:08.828Z,6.07
2023-05-02T21:09:35.452Z,7.20
2023-05-02T21:14:37.272Z,6.40
2023-05-02T21:17:03.870Z,6.20
2023-05-02T21:19:37.451Z,6.32
2023-05-02T21:26:26.769Z,5.43
2023-05-02T21:43:12.661Z,5.00
2023-05-02T21:45:46.827Z,5.53
2023-05-02T21:48:14.561Z,6.07
2023-05-02T21:50:42.524Z,5.22
2023-05-02T21:53:09.826Z,5.90
2023-05-02T21:55:37.662Z,5.70
2023-05-02T21:58:22.580Z,5.53
2023-05-02T22:01:09.110Z,5.15
2023-05-02T22:03:36.625Z,5.05
2023-05-02T22:06:06.955Z,5.32
2023-05-02T22:08:33.851Z,5.37
2023-05-02T22:11:00.447Z,6.20
2023-05-02T22:13:27.119Z,5.95
2023-05-02T22:18:29.245Z,5.40
2023-05-02T22:20:58.530Z,4.80
2023-05-02T22:23:25.114Z,4.97
2023-05-02T22:25:51.730Z,5.40
2023-05-02T22:28:18.368Z,5.55
2023-05-02T22:30:44.986Z,6.18
2023-05-02T22:33:27.297Z,5.78
2023-05-02T22:36:13.929Z,5.90
2023-05-02T22:38:41.697Z,5.95
2023-05-02T22:46:18.937Z,5.87
2023-05-02T23:27:50.883Z,5.97
2023-05-02T23:30:17.471Z,6.22
2023-05-02T23:32:45.103Z,6.20
2023-05-02T23:35:12.387Z,6.15
2023-05-02T23:37:41.217Z,5.65
2023-05-02T23:40:13.925Z,6.00
2023-05-02T23:42:40.959Z,6.10
2023-05-02T23:45:08.721Z,5.60
2023-05-02T23:47:36.151Z,6.12
2023-05-02T23:50:22.187Z,6.28
2023-05-02T23:53:03.471Z,6.07
2023-05-02T23:55:30.341Z,5.93
2023-05-02T23:57:56.912Z,6.60
